Kayu Ramin — 3FPC9 — position and weather

sailwx.info

Track history (hours):
 
Tides and Currents Weather Stations Pressure Air Temp Water Temp Dewpoint Dewpoint Depression Visibility Wind Speed Wind Dir Waves Ship Positions

Kayu Ramin

Last reported at 2014-Dec-16 23:30 UTC. Time now 2014-Dec-19 21:08 UTC.
Position N 01°16' E 104°11'.

Length 225 m; draft 14.1 m.

Type: Cargo ship. MMSI: 354989000.

Date/timePositionNaut miles runAvg speedWind from/ knotsBaromVisibWave heightAir tempDewpointWater temp
2014-Dec-16 23:30N 01°16' E 104°11'6 6.7
2014-Dec-16 22:33N 01°17' E 104°05'2 2.4
2014-Dec-16 21:31N 01°18' E 104°03'0 0.1
2014-Dec-16 20:22N 01°18' E 104°03'0 0.1
2014-Dec-16 19:25N 01°18' E 104°03'0 0.0
2014-Dec-16 18:31N 01°18' E 104°03'0 0.0
2014-Dec-16 17:25N 01°18' E 104°03'0 0.0
2014-Dec-16 16:19N 01°18' E 104°03'0 0.0
2014-Dec-16 15:25N 01°18' E 104°03'0 0.1
2014-Dec-16 14:31N 01°18' E 104°03'0 0.0
2014-Dec-16 12:31N 01°18' E 104°03'0 0.0
2014-Dec-16 10:13N 01°18' E 104°03'0 0.0
2014-Dec-16 09:25N 01°18' E 104°03'0 0.0
2014-Dec-16 08:30N 01°18' E 104°03'0 0.0
2014-Dec-16 07:18N 01°18' E 104°03'1 1.9
2014-Dec-16 06:33N 01°17' E 104°02'5 5.2
2014-Dec-16 05:34N 01°16' E 103°57'3 3.0
2014-Dec-16 04:28N 01°13' E 103°55'6 6.4
2014-Dec-16 03:32N 01°10' E 103°50'85 9.4
2014-Dec-15 18:30N 01°45' E 102°31'  
Track history (hours):
 
Tides and Currents Weather Stations Pressure Air Temp Water Temp Dewpoint Dewpoint Depression Visibility Wind Speed Wind Dir Waves Ship Positions

Kayu Ramin

Last reported at 2014-Dec-16 23:30 UTC. Time now 2014-Dec-19 21:08 UTC.
Position N 01°16' E 104°11'.

Length 225 m; draft 14.1 m.

Type: Cargo ship. MMSI: 354989000.

Date/timePositionNaut miles runAvg speedWind from/ knotsBaromVisibWave heightAir tempDewpointWater temp
2014-Dec-16 23:30N 01°16' E 104°11'6 6.7
2014-Dec-16 22:33N 01°17' E 104°05'2 2.4
2014-Dec-16 21:31N 01°18' E 104°03'0 0.1
2014-Dec-16 20:22N 01°18' E 104°03'0 0.1
2014-Dec-16 19:25N 01°18' E 104°03'0 0.0
2014-Dec-16 18:31N 01°18' E 104°03'0 0.0
2014-Dec-16 17:25N 01°18' E 104°03'0 0.0
2014-Dec-16 16:19N 01°18' E 104°03'0 0.0
2014-Dec-16 15:25N 01°18' E 104°03'0 0.1
2014-Dec-16 14:31N 01°18' E 104°03'0 0.0
2014-Dec-16 12:31N 01°18' E 104°03'0 0.0
2014-Dec-16 10:13N 01°18' E 104°03'0 0.0
2014-Dec-16 09:25N 01°18' E 104°03'0 0.0
2014-Dec-16 08:30N 01°18' E 104°03'0 0.0
2014-Dec-16 07:18N 01°18' E 104°03'1 1.9
2014-Dec-16 06:33N 01°17' E 104°02'5 5.2
2014-Dec-16 05:34N 01°16' E 103°57'3 3.0
2014-Dec-16 04:28N 01°13' E 103°55'6 6.4
2014-Dec-16 03:32N 01°10' E 103°50'85 9.4
2014-Dec-15 18:30N 01°45' E 102°31'  

Dump ship's entire track history